Wetterdaten: Woche 20.06.16 - 26.06.16 (KW25)
Datum Zeit Temperatur Luftfeuchte Luftdruck Niederschlag Windrichtung Sonnenschein Solar Wind
20.06.2016 00:00 11,3 C 99 % 1022,5 hPa 0,0 l/m N 0,00 h 0 W/m 0,0 km/h (0 Bft)
20.06.2016 01:00 10,4 C 99 % 1022,5 hPa 0,0 l/m SW 0,00 h 0 W/m 2,5 km/h (1 Bft)
20.06.2016 02:00 9,4 C 98 % 1022,4 hPa 0,0 l/m W-SW 0,00 h 0 W/m 2,9 km/h (1 Bft)
20.06.2016 03:00 9,2 C 98 % 1022,5 hPa 0,0 l/m N 0,00 h 0 W/m 1,1 km/h (0 Bft)
20.06.2016 04:00 8,6 C 98 % 1022,5 hPa 0,0 l/m N 0,00 h 0 W/m 0,0 km/h (0 Bft)
20.06.2016 05:00 7,8 C 99 % 1022,4 hPa 0,0 l/m N 0,00 h 10 W/m 0,0 km/h (0 Bft)
20.06.2016 06:00 7,9 C 99 % 1022,4 hPa 0,0 l/m N 0,00 h 55 W/m 0,0 km/h (0 Bft)
20.06.2016 07:00 9,6 C 100 % 1022,5 hPa 0,0 l/m N 0,83 h 214 W/m 0,0 km/h (0 Bft)
20.06.2016 08:00 12,7 C 93 % 1022,4 hPa 0,0 l/m W-SW 1,00 h 389 W/m 0,7 km/h (0 Bft)
20.06.2016 09:00 15,1 C 81 % 1022,0 hPa 0,0 l/m W-SW 1,00 h 571 W/m 5,3 km/h (1 Bft)
20.06.2016 10:00 16,5 C 74 % 1021,5 hPa 0,0 l/m W-SW 0,75 h 602 W/m 4,0 km/h (1 Bft)
20.06.2016 11:00 16,3 C 71 % 1021,3 hPa 0,0 l/m W-SW 0,25 h 378 W/m 2,9 km/h (1 Bft)
20.06.2016 12:00 18,6 C 63 % 1020,8 hPa 0,0 l/m SW 1,00 h 1012 W/m 8,0 km/h (2 Bft)
20.06.2016 13:00 19,4 C 59 % 1020,4 hPa 0,0 l/m S-SW 0,75 h 762 W/m 7,9 km/h (2 Bft)
20.06.2016 14:00 20,6 C 55 % 1019,6 hPa 0,0 l/m SW 0,67 h 730 W/m 9,5 km/h (2 Bft)
20.06.2016 15:00 20,7 C 53 % 1018,9 hPa 0,0 l/m S-SW 0,50 h 595 W/m 9,5 km/h (2 Bft)
20.06.2016 16:00 21,2 C 51 % 1018,5 hPa 0,0 l/m SW 0,83 h 686 W/m 12,2 km/h (2 Bft)
20.06.2016 17:00 21,0 C 52 % 1017,8 hPa 0,0 l/m SW 0,75 h 448 W/m 10,7 km/h (2 Bft)
20.06.2016 18:00 20,1 C 57 % 1017,7 hPa 0,0 l/m W-SW 0,50 h 230 W/m 8,0 km/h (2 Bft)
20.06.2016 19:00 19,0 C 59 % 1017,6 hPa 0,0 l/m W-SW 0,00 h 89 W/m 8,7 km/h (2 Bft)
20.06.2016 20:00 17,5 C 67 % 1017,5 hPa 0,0 l/m W-SW 0,00 h 27 W/m 5,2 km/h (1 Bft)
20.06.2016 21:00 16,5 C 72 % 1017,3 hPa 0,0 l/m W-SW 0,00 h 7 W/m 3,5 km/h (1 Bft)
20.06.2016 22:00 15,6 C 78 % 1017,6 hPa 0,0 l/m N 0,00 h 0 W/m 0,3 km/h (0 Bft)
20.06.2016 23:00 16,0 C 74 % 1018,3 hPa 0,0 l/m W-SW 0,00 h 0 W/m 7,8 km/h (2 Bft)
21.06.2016 00:00 14,8 C 85 % 1018,9 hPa 0,4 l/m W 0,00 h 0 W/m 5,4 km/h (1 Bft)
21.06.2016 01:00 13,7 C 94 % 1018,9 hPa 1,8 l/m W 0,00 h 0 W/m 1,9 km/h (1 Bft)
21.06.2016 02:00 13,6 C 96 % 1019,0 hPa 0,4 l/m W 0,00 h 0 W/m 9,0 km/h (2 Bft)
21.06.2016 03:00 13,1 C 95 % 1019,0 hPa 0,2 l/m W 0,00 h 0 W/m 12,1 km/h (2 Bft)
21.06.2016 04:00 12,7 C 96 % 1019,2 hPa 0,2 l/m W-SW 0,00 h 0 W/m 12,8 km/h (3 Bft)
21.06.2016 05:00 12,3 C 97 % 1019,2 hPa 0,2 l/m W-SW 0,00 h 7 W/m 10,2 km/h (2 Bft)
21.06.2016 06:00 12,6 C 98 % 1019,5 hPa 0,4 l/m W-SW 0,00 h 24 W/m 14,5 km/h (3 Bft)
21.06.2016 07:00 13,1 C 98 % 1019,8 hPa 0,0 l/m W-SW 0,00 h 57 W/m 14,8 km/h (3 Bft)
21.06.2016 08:00 13,6 C 97 % 1020,0 hPa 0,0 l/m W-SW 0,00 h 83 W/m 14,5 km/h (3 Bft)
21.06.2016 09:00 14,1 C 97 % 1020,2 hPa 0,0 l/m SW 0,00 h 99 W/m 14,0 km/h (3 Bft)
21.06.2016 10:00 15,0 C 94 % 1020,3 hPa 0,0 l/m W-SW 0,00 h 166 W/m 14,9 km/h (3 Bft)
21.06.2016 11:00 16,0 C 91 % 1020,5 hPa 0,0 l/m SW 0,00 h 197 W/m 13,4 km/h (3 Bft)
21.06.2016 12:00 17,2 C 87 % 1020,7 hPa 0,0 l/m SW 0,17 h 268 W/m 13,8 km/h (3 Bft)
21.06.2016 13:00 18,5 C 82 % 1020,4 hPa 0,0 l/m SW 0,33 h 473 W/m 16,8 km/h (3 Bft)
21.06.2016 14:00 20,1 C 78 % 1020,2 hPa 0,0 l/m W-SW 0,25 h 501 W/m 15,2 km/h (3 Bft)
21.06.2016 15:00 20,8 C 74 % 1020,0 hPa 0,0 l/m W-SW 0,25 h 370 W/m 13,8 km/h (3 Bft)
21.06.2016 16:00 20,7 C 75 % 1020,1 hPa 0,0 l/m SW 0,25 h 355 W/m 15,3 km/h (3 Bft)
21.06.2016 17:00 21,1 C 75 % 1020,2 hPa 0,0 l/m SW 0,67 h 365 W/m 18,0 km/h (3 Bft)
21.06.2016 18:00 20,0 C 79 % 1020,3 hPa 0,0 l/m W-SW 0,17 h 160 W/m 18,6 km/h (3 Bft)
21.06.2016 19:00 19,1 C 83 % 1020,3 hPa 0,0 l/m SW 0,00 h 97 W/m 15,4 km/h (3 Bft)
21.06.2016 20:00 18,3 C 86 % 1020,6 hPa 0,0 l/m SW 0,08 h 35 W/m 13,2 km/h (3 Bft)
21.06.2016 21:00 17,1 C 90 % 1020,9 hPa 0,0 l/m SW 0,00 h 7 W/m 6,4 km/h (2 Bft)
21.06.2016 22:00 17,7 C 89 % 1021,4 hPa 0,0 l/m SW 0,00 h 0 W/m 2,8 km/h (1 Bft)
21.06.2016 23:00 17,3 C 91 % 1021,8 hPa 0,0 l/m N 0,00 h 0 W/m 0,9 km/h (0 Bft)
22.06.2016 00:00 16,4 C 94 % 1021,9 hPa 0,0 l/m SW 0,00 h 0 W/m 1,3 km/h (1 Bft)
22.06.2016 01:00 15,9 C 96 % 1022,0 hPa 0,0 l/m N 0,00 h 0 W/m 0,0 km/h (0 Bft)
22.06.2016 02:00 15,0 C 98 % 1022,0 hPa 0,0 l/m N 0,00 h 0 W/m 0,0 km/h (0 Bft)
22.06.2016 03:00 15,0 C 98 % 1021,9 hPa 0,0 l/m N 0,00 h 0 W/m 0,0 km/h (0 Bft)
22.06.2016 04:00 15,0 C 99 % 1021,9 hPa 0,0 l/m N 0,00 h 0 W/m 0,0 km/h (0 Bft)
22.06.2016 05:00 15,0 C 99 % 1022,0 hPa 0,0 l/m N 0,00 h 10 W/m 0,0 km/h (0 Bft)
22.06.2016 06:00 15,0 C 99 % 1022,4 hPa 0,0 l/m N 0,00 h 30 W/m 0,0 km/h (0 Bft)
22.06.2016 07:00 16,0 C 98 % 1022,6 hPa 0,0 l/m N 0,00 h 98 W/m 0,0 km/h (0 Bft)
22.06.2016 08:00 18,3 C 92 % 1022,3 hPa 0,0 l/m SW 0,92 h 376 W/m 3,3 km/h (1 Bft)
22.06.2016 09:00 20,7 C 81 % 1022,0 hPa 0,0 l/m W 1,00 h 553 W/m 5,6 km/h (1 Bft)
22.06.2016 10:00 22,4 C 74 % 1021,8 hPa 0,0 l/m SW 0,83 h 657 W/m 11,0 km/h (2 Bft)
22.06.2016 11:00 23,7 C 70 % 1021,4 hPa 0,0 l/m SW 0,83 h 746 W/m 9,9 km/h (2 Bft)
22.06.2016 12:00 24,8 C 67 % 1021,2 hPa 0,0 l/m S-SW 0,92 h 883 W/m 7,2 km/h (2 Bft)
22.06.2016 13:00 26,0 C 63 % 1021,0 hPa 0,0 l/m S-SO 1,00 h 927 W/m 8,0 km/h (2 Bft)
22.06.2016 14:00 27,4 C 58 % 1020,4 hPa 0,0 l/m O-SO 1,00 h 899 W/m 8,2 km/h (2 Bft)
22.06.2016 15:00 28,3 C 55 % 1019,9 hPa 0,0 l/m SO 1,00 h 836 W/m 9,5 km/h (2 Bft)
22.06.2016 16:00 28,8 C 53 % 1019,7 hPa 0,0 l/m O 1,00 h 733 W/m 9,9 km/h (2 Bft)
22.06.2016 17:00 29,2 C 52 % 1019,3 hPa 0,0 l/m NO 1,00 h 592 W/m 11,4 km/h (2 Bft)
22.06.2016 18:00 28,5 C 56 % 1019,0 hPa 0,0 l/m NO 1,00 h 431 W/m 13,2 km/h (3 Bft)
22.06.2016 19:00 27,2 C 61 % 1019,2 hPa 0,0 l/m NO 1,00 h 257 W/m 13,4 km/h (3 Bft)
22.06.2016 20:00 25,5 C 66 % 1019,1 hPa 0,0 l/m O-NO 0,08 h 23 W/m 11,4 km/h (2 Bft)
22.06.2016 21:00 23,5 C 74 % 1019,2 hPa 0,0 l/m O-NO 0,00 h 7 W/m 4,1 km/h (1 Bft)
22.06.2016 22:00 20,9 C 83 % 1019,5 hPa 0,0 l/m N 0,00 h 0 W/m 2,5 km/h (1 Bft)
22.06.2016 23:00 19,9 C 86 % 1019,5 hPa 0,0 l/m O-NO 0,00 h 0 W/m 4,3 km/h (1 Bft)
23.06.2016 00:00 18,8 C 90 % 1019,5 hPa 0,0 l/m N 0,00 h 0 W/m 1,5 km/h (1 Bft)
23.06.2016 01:00 17,8 C 93 % 1019,3 hPa 0,0 l/m O-NO 0,00 h 0 W/m 1,3 km/h (1 Bft)
23.06.2016 02:00 17,1 C 95 % 1019,0 hPa 0,0 l/m O-NO 0,00 h 0 W/m 1,5 km/h (1 Bft)
23.06.2016 03:00 16,6 C 96 % 1018,7 hPa 0,0 l/m O-NO 0,00 h 0 W/m 1,3 km/h (1 Bft)
23.06.2016 04:00 15,9 C 97 % 1018,5 hPa 0,0 l/m O-NO 0,00 h 0 W/m 1,7 km/h (1 Bft)
23.06.2016 05:00 15,5 C 97 % 1018,3 hPa 0,0 l/m N 0,00 h 9 W/m 1,1 km/h (0 Bft)
23.06.2016 06:00 15,9 C 98 % 1018,6 hPa 0,0 l/m N 0,08 h 69 W/m 2,4 km/h (1 Bft)
23.06.2016 07:00 18,0 C 93 % 1018,5 hPa 0,0 l/m O-NO 1,00 h 224 W/m 5,1 km/h (1 Bft)
23.06.2016 08:00 20,3 C 85 % 1018,4 hPa 0,0 l/m O-NO 1,00 h 394 W/m 6,8 km/h (2 Bft)
23.06.2016 09:00 22,7 C 79 % 1018,4 hPa 0,0 l/m NO 1,00 h 558 W/m 3,5 km/h (1 Bft)
23.06.2016 10:00 25,2 C 71 % 1018,3 hPa 0,0 l/m O-NO 1,00 h 701 W/m 4,4 km/h (1 Bft)
23.06.2016 11:00 26,8 C 66 % 1018,3 hPa 0,0 l/m S 1,00 h 820 W/m 4,4 km/h (1 Bft)
23.06.2016 12:00 28,3 C 62 % 1017,9 hPa 0,0 l/m SW 1,00 h 896 W/m 7,1 km/h (2 Bft)
23.06.2016 13:00 30,2 C 52 % 1017,5 hPa 0,0 l/m SO 1,00 h 929 W/m 7,2 km/h (2 Bft)
23.06.2016 14:00 31,6 C 45 % 1016,8 hPa 0,0 l/m O-SO 1,00 h 913 W/m 9,4 km/h (2 Bft)
23.06.2016 15:00 32,5 C 40 % 1016,4 hPa 0,0 l/m O-SO 1,00 h 842 W/m 11,5 km/h (2 Bft)
23.06.2016 16:00 32,9 C 39 % 1015,8 hPa 0,0 l/m O 1,00 h 736 W/m 13,6 km/h (3 Bft)
23.06.2016 17:00 32,7 C 38 % 1015,2 hPa 0,0 l/m O-NO 1,00 h 598 W/m 14,4 km/h (3 Bft)
23.06.2016 18:00 32,0 C 38 % 1014,8 hPa 0,0 l/m O-NO 1,00 h 438 W/m 13,3 km/h (3 Bft)
23.06.2016 19:00 30,7 C 41 % 1014,6 hPa 0,0 l/m O-NO 1,00 h 263 W/m 11,2 km/h (2 Bft)
23.06.2016 20:00 28,0 C 53 % 1014,7 hPa 0,0 l/m O-NO 0,08 h 25 W/m 3,9 km/h (1 Bft)
23.06.2016 21:00 23,6 C 73 % 1014,7 hPa 0,0 l/m N 0,00 h 8 W/m 0,3 km/h (0 Bft)
23.06.2016 22:00 21,4 C 82 % 1014,8 hPa 0,0 l/m N 0,00 h 0 W/m 0,0 km/h (0 Bft)
23.06.2016 23:00 20,4 C 87 % 1014,7 hPa 0,0 l/m N 0,00 h 0 W/m 0,7 km/h (0 Bft)
24.06.2016 00:00 19,8 C 87 % 1014,5 hPa 0,0 l/m N 0,00 h 0 W/m 1,5 km/h (1 Bft)
24.06.2016 01:00 19,1 C 89 % 1014,4 hPa 0,0 l/m N 0,00 h 0 W/m 1,9 km/h (1 Bft)
24.06.2016 02:00 18,6 C 90 % 1014,4 hPa 0,0 l/m N-NO 0,00 h 0 W/m 6,0 km/h (2 Bft)
24.06.2016 03:00 18,0 C 91 % 1014,5 hPa 0,0 l/m N 0,00 h 0 W/m 0,9 km/h (0 Bft)
24.06.2016 04:00 16,9 C 95 % 1014,6 hPa 0,0 l/m N 0,00 h 0 W/m 0,3 km/h (0 Bft)
24.06.2016 05:00 16,0 C 97 % 1014,8 hPa 0,0 l/m N-NO 0,00 h 9 W/m 0,0 km/h (0 Bft)
24.06.2016 06:00 16,1 C 97 % 1015,2 hPa 0,0 l/m N 0,00 h 60 W/m 0,7 km/h (0 Bft)
24.06.2016 07:00 18,4 C 93 % 1015,2 hPa 0,0 l/m N-NO 0,92 h 204 W/m 3,3 km/h (1 Bft)
24.06.2016 08:00 21,5 C 86 % 1015,2 hPa 0,0 l/m S-SW 1,00 h 363 W/m 10,3 km/h (2 Bft)
24.06.2016 09:00 24,3 C 80 % 1015,0 hPa 0,0 l/m S-SW 1,00 h 523 W/m 8,2 km/h (2 Bft)
24.06.2016 10:00 26,5 C 74 % 1014,7 hPa 0,0 l/m S-SW 1,00 h 667 W/m 9,9 km/h (2 Bft)
24.06.2016 11:00 28,3 C 66 % 1014,5 hPa 0,0 l/m S-SW 1,00 h 781 W/m 12,5 km/h (3 Bft)
24.06.2016 12:00 29,5 C 54 % 1014,1 hPa 0,0 l/m W-SW 1,00 h 858 W/m 12,5 km/h (3 Bft)
24.06.2016 13:00 30,3 C 51 % 1013,8 hPa 0,0 l/m W-SW 1,00 h 903 W/m 13,4 km/h (3 Bft)
24.06.2016 14:00 31,0 C 48 % 1013,0 hPa 0,0 l/m W-NW 1,00 h 878 W/m 11,4 km/h (2 Bft)
24.06.2016 15:00 31,6 C 45 % 1012,3 hPa 0,0 l/m W-SW 1,00 h 819 W/m 8,6 km/h (2 Bft)
24.06.2016 16:00 32,2 C 42 % 1011,5 hPa 0,0 l/m N-NW 1,00 h 719 W/m 5,5 km/h (1 Bft)
24.06.2016 17:00 32,0 C 42 % 1010,7 hPa 0,0 l/m N 1,00 h 581 W/m 6,7 km/h (2 Bft)
24.06.2016 18:00 31,9 C 43 % 1010,4 hPa 0,0 l/m O-NO 1,00 h 403 W/m 5,5 km/h (1 Bft)
24.06.2016 19:00 30,0 C 57 % 1010,2 hPa 0,0 l/m N 0,75 h 194 W/m 1,5 km/h (1 Bft)
24.06.2016 20:00 26,3 C 67 % 1010,2 hPa 0,0 l/m N 0,00 h 19 W/m 7,2 km/h (2 Bft)
24.06.2016 21:00 23,0 C 71 % 1012,3 hPa 7,4 l/m NO 0,00 h 0 W/m 22,8 km/h (4 Bft)
24.06.2016 22:00 17,9 C 94 % 1013,4 hPa 5,0 l/m N-NW 0,00 h 0 W/m 14,4 km/h (3 Bft)
24.06.2016 23:00 17,9 C 95 % 1012,8 hPa 0,6 l/m N-NO 0,00 h 0 W/m 23,6 km/h (4 Bft)
25.06.2016 00:00 17,5 C 95 % 1012,9 hPa 0,4 l/m N 0,00 h 0 W/m 21,2 km/h (4 Bft)
25.06.2016 01:00 17,5 C 94 % 1012,1 hPa 0,2 l/m N-NO 0,00 h 0 W/m 11,9 km/h (2 Bft)
25.06.2016 02:00 16,9 C 95 % 1010,7 hPa 0,0 l/m N 0,00 h 0 W/m 0,3 km/h (0 Bft)
25.06.2016 03:00 15,9 C 97 % 1010,3 hPa 0,0 l/m N 0,00 h 0 W/m 0,9 km/h (0 Bft)
25.06.2016 04:00 15,8 C 98 % 1010,2 hPa 0,0 l/m NW 0,00 h 0 W/m 5,2 km/h (1 Bft)
25.06.2016 05:00 15,7 C 97 % 1010,3 hPa 0,0 l/m NW 0,00 h 9 W/m 1,7 km/h (1 Bft)
25.06.2016 06:00 16,1 C 98 % 1011,1 hPa 0,0 l/m W 0,00 h 33 W/m 6,6 km/h (2 Bft)
25.06.2016 07:00 17,6 C 96 % 1010,5 hPa 0,0 l/m SW 0,75 h 193 W/m 10,8 km/h (2 Bft)
25.06.2016 08:00 18,9 C 92 % 1010,7 hPa 0,0 l/m SW 0,33 h 237 W/m 16,2 km/h (3 Bft)
25.06.2016 09:00 19,8 C 90 % 1010,8 hPa 0,0 l/m SW 0,00 h 176 W/m 10,2 km/h (2 Bft)
25.06.2016 10:00 20,8 C 86 % 1010,4 hPa 0,0 l/m SW 0,08 h 253 W/m 8,9 km/h (2 Bft)
25.06.2016 11:00 22,4 C 79 % 1010,2 hPa 0,0 l/m SW 0,67 h 608 W/m 7,9 km/h (2 Bft)
25.06.2016 12:00 23,8 C 75 % 1009,6 hPa 0,0 l/m W-SW 0,67 h 640 W/m 8,8 km/h (2 Bft)
25.06.2016 13:00 24,5 C 73 % 1009,1 hPa 0,0 l/m W-SW 0,42 h 540 W/m 10,5 km/h (2 Bft)
25.06.2016 14:00 24,7 C 74 % 1008,7 hPa 0,0 l/m W-NW 0,83 h 742 W/m 15,2 km/h (3 Bft)
25.06.2016 15:00 24,2 C 69 % 1009,1 hPa 0,0 l/m W 0,25 h 369 W/m 16,1 km/h (3 Bft)
25.06.2016 16:00 22,8 C 71 % 1009,5 hPa 0,0 l/m W-SW 0,00 h 143 W/m 20,0 km/h (4 Bft)
25.06.2016 17:00 20,5 C 78 % 1010,6 hPa 0,0 l/m W 0,00 h 109 W/m 22,8 km/h (4 Bft)
25.06.2016 18:00 19,1 C 87 % 1011,5 hPa 0,0 l/m W-NW 0,00 h 50 W/m 9,4 km/h (2 Bft)
25.06.2016 19:00 17,9 C 89 % 1012,7 hPa 0,4 l/m W-NW 0,00 h 30 W/m 8,7 km/h (2 Bft)
25.06.2016 20:00 17,3 C 90 % 1013,0 hPa 0,0 l/m N 0,00 h 26 W/m 1,1 km/h (0 Bft)
25.06.2016 21:00 16,9 C 90 % 1013,5 hPa 0,0 l/m N 0,00 h 6 W/m 1,3 km/h (1 Bft)
25.06.2016 22:00 16,7 C 91 % 1014,2 hPa 0,0 l/m N 0,00 h 0 W/m 0,7 km/h (0 Bft)
25.06.2016 23:00 16,6 C 93 % 1014,8 hPa 0,2 l/m W-NW 0,00 h 0 W/m 1,1 km/h (0 Bft)
26.06.2016 00:00 15,5 C 94 % 1015,2 hPa 0,8 l/m NW 0,00 h 0 W/m 9,8 km/h (2 Bft)
26.06.2016 01:00 14,7 C 96 % 1015,0 hPa 0,0 l/m N 0,00 h 0 W/m 0,0 km/h (0 Bft)
26.06.2016 02:00 14,8 C 97 % 1015,1 hPa 0,0 l/m N 0,00 h 0 W/m 0,3 km/h (0 Bft)
26.06.2016 03:00 14,7 C 97 % 1015,0 hPa 0,2 l/m N 0,00 h 0 W/m 0,0 km/h (0 Bft)
26.06.2016 04:00 14,0 C 97 % 1015,1 hPa 0,0 l/m N-NW 0,00 h 0 W/m 4,0 km/h (1 Bft)
26.06.2016 05:00 13,4 C 96 % 1015,4 hPa 0,0 l/m NW 0,00 h 7 W/m 5,0 km/h (1 Bft)
26.06.2016 06:00 13,3 C 96 % 1015,8 hPa 0,0 l/m N 0,00 h 25 W/m 1,2 km/h (1 Bft)
26.06.2016 07:00 13,4 C 95 % 1016,0 hPa 0,0 l/m N 0,00 h 64 W/m 1,5 km/h (1 Bft)
26.06.2016 08:00 14,1 C 93 % 1016,3 hPa 0,0 l/m NW 0,00 h 106 W/m 3,7 km/h (1 Bft)
26.06.2016 09:00 14,8 C 91 % 1016,4 hPa 0,0 l/m NW 0,00 h 150 W/m 4,0 km/h (1 Bft)
26.06.2016 10:00 15,8 C 84 % 1016,5 hPa 0,0 l/m NW 0,00 h 218 W/m 4,3 km/h (1 Bft)
26.06.2016 11:00 17,1 C 77 % 1016,5 hPa 0,0 l/m O 0,08 h 314 W/m 8,9 km/h (2 Bft)
26.06.2016 12:00 17,6 C 73 % 1016,6 hPa 0,0 l/m O-SO 0,00 h 306 W/m 7,4 km/h (2 Bft)
26.06.2016 13:00 18,2 C 66 % 1016,5 hPa 0,0 l/m O-SO 0,00 h 332 W/m 7,2 km/h (2 Bft)
26.06.2016 14:00 18,6 C 66 % 1016,3 hPa 0,0 l/m SO 0,00 h 259 W/m 9,1 km/h (2 Bft)
26.06.2016 15:00 18,0 C 67 % 1016,2 hPa 0,0 l/m S 0,00 h 196 W/m 7,2 km/h (2 Bft)
26.06.2016 16:00 18,8 C 64 % 1015,9 hPa 0,0 l/m S 0,00 h 300 W/m 9,0 km/h (2 Bft)
26.06.2016 17:00 18,4 C 63 % 1015,9 hPa 0,0 l/m S 0,00 h 119 W/m 5,2 km/h (1 Bft)
26.06.2016 18:00 17,7 C 71 % 1016,0 hPa 0,0 l/m S-SW 0,00 h 53 W/m 8,2 km/h (2 Bft)
26.06.2016 19:00 16,9 C 80 % 1016,1 hPa 0,0 l/m S 0,08 h 56 W/m 10,1 km/h (2 Bft)
26.06.2016 20:00 16,3 C 81 % 1016,3 hPa 0,0 l/m W-SW 0,08 h 35 W/m 6,2 km/h (2 Bft)
26.06.2016 21:00 15,5 C 85 % 1016,8 hPa 0,0 l/m N 0,00 h 6 W/m 0,3 km/h (0 Bft)
26.06.2016 22:00 15,0 C 89 % 1017,1 hPa 0,0 l/m N 0,00 h 0 W/m 0,1 km/h (0 Bft)
26.06.2016 23:00 14,7 C 90 % 1017,7 hPa 0,0 l/m NW 0,00 h 0 W/m 1,9 km/h (1 Bft)
Min-Datum _ 20.06.16 23.06.16 25.06.16 - - - - 20.06.16
_ Min-Zeit 05:55 17:00 14:10 - - - - 00:00
Minimum _ 7,5 C 37 % 1008,6 hPa - - - - 0,0 km/h (0 Bft)
Max-Datum _ 23.06.16 20.06.16 20.06.16 24.06.16 - 24.06.16 21.06.16 24.06.16
_ Max-Zeit 16:25 06:45 00:55 21:50 - 19:35 14:15 21:20
Maximum _ 33,1 C 100 % 1022,8 hPa 7,4 l/m - 0,10 h 1127 W/m 41,8 km/h
N-NO (6 Bft)
Durchschnitt _ 19,4 C 80 % 1017,0 hPa #18,8 l/m W-SW #52:40 h 349 W/m 7,0 km/h (2 Bft)